createdAt,value
2017-11-24T00:00:44.337Z,100216
2017-11-24T00:03:12.438Z,100225
2017-11-24T00:05:40.558Z,100223
2017-11-24T00:08:08.707Z,100231
2017-11-24T00:10:37.283Z,100240
2017-11-24T00:13:06.132Z,100229
2017-11-24T00:15:34.232Z,100223
2017-11-24T00:18:02.386Z,100223
2017-11-24T00:20:30.534Z,100210
2017-11-24T00:22:58.676Z,100215
2017-11-24T00:25:27.538Z,100215
2017-11-24T00:27:55.634Z,100210
2017-11-24T00:30:24.542Z,100210
2017-11-24T00:32:52.694Z,100223
2017-11-24T00:35:20.910Z,100219
2017-11-24T00:37:49.333Z,100227
2017-11-24T00:40:17.462Z,100217
2017-11-24T00:42:48.526Z,100215
2017-11-24T00:45:16.633Z,100220
2017-11-24T00:47:45.470Z,100229
2017-11-24T00:50:13.593Z,100235
2017-11-24T00:52:41.762Z,100230
2017-11-24T00:55:09.878Z,100220
2017-11-24T00:57:38.045Z,100211
2017-11-24T01:00:07.330Z,100233
2017-11-24T01:02:36.177Z,100231
2017-11-24T01:05:04.322Z,100237
2017-11-24T01:07:32.524Z,100240
2017-11-24T01:10:00.607Z,100242
2017-11-24T01:12:28.755Z,100247
2017-11-24T01:14:56.838Z,100245
2017-11-24T01:17:24.985Z,100242
2017-11-24T01:19:53.119Z,100238
2017-11-24T01:22:21.257Z,100238
2017-11-24T01:24:49.671Z,100244
2017-11-24T01:27:18.090Z,100238
2017-11-24T01:29:46.192Z,100221
2017-11-24T01:32:14.289Z,100209
2017-11-24T01:34:42.421Z,100198
2017-11-24T01:37:10.566Z,100197
2017-11-24T01:39:38.703Z,100166
2017-11-24T01:42:06.937Z,100181
2017-11-24T01:44:35.365Z,100183
2017-11-24T01:47:03.557Z,100184
2017-11-24T01:49:32.452Z,100179
2017-11-24T01:52:01.705Z,100175
2017-11-24T01:54:29.826Z,100189
2017-11-24T01:56:58.770Z,100185
2017-11-24T01:59:26.928Z,100194
2017-11-24T02:01:55.140Z,100193
2017-11-24T02:04:23.310Z,100184
2017-11-24T02:06:51.893Z,100185
2017-11-24T02:09:20.112Z,100182
2017-11-24T02:11:48.246Z,100185
2017-11-24T02:14:16.381Z,100192
2017-11-24T02:16:44.478Z,100204
2017-11-24T02:19:12.649Z,100207
2017-11-24T02:21:40.832Z,100196
2017-11-24T02:24:08.994Z,100196
2017-11-24T02:26:37.143Z,100197
2017-11-24T02:29:05.389Z,100198
2017-11-24T02:31:35.881Z,100202
2017-11-24T02:34:04.029Z,100197
2017-11-24T02:36:32.188Z,100200
2017-11-24T02:39:01.113Z,100197
2017-11-24T02:41:29.232Z,100200
2017-11-24T02:43:57.393Z,100186
2017-11-24T02:46:25.534Z,100165
2017-11-24T02:48:53.725Z,100172
2017-11-24T02:51:22.310Z,100174
2017-11-24T02:53:50.465Z,100167
2017-11-24T02:56:18.613Z,100179
2017-11-24T02:58:46.822Z,100189
2017-11-24T03:01:14.976Z,100180
2017-11-24T03:03:43.100Z,100175
2017-11-24T03:06:11.202Z,100173
2017-11-24T03:08:39.325Z,100170
2017-11-24T03:11:07.424Z,100178
2017-11-24T03:13:35.521Z,100183
2017-11-24T03:16:05.341Z,100175
2017-11-24T03:18:33.508Z,100177
2017-11-24T03:21:01.632Z,100176
2017-11-24T03:23:29.712Z,100179
2017-11-24T03:25:57.806Z,100170
2017-11-24T03:28:25.951Z,100170
2017-11-24T03:30:54.082Z,100157
2017-11-24T03:33:22.181Z,100157
2017-11-24T03:35:50.272Z,100147
2017-11-24T03:38:18.875Z,100152
2017-11-24T03:40:46.981Z,100119
2017-11-24T03:43:15.052Z,100144
2017-11-24T03:45:43.241Z,100143
2017-11-24T03:48:11.363Z,100136
2017-11-24T03:50:39.473Z,100146
2017-11-24T03:53:07.597Z,100157
2017-11-24T03:55:35.717Z,100138
2017-11-24T03:58:03.877Z,100143
2017-11-24T04:00:32.758Z,100133
2017-11-24T04:03:02.066Z,100149
2017-11-24T04:05:31.106Z,100158
2017-11-24T04:07:59.238Z,100163
2017-11-24T04:10:28.142Z,100157
2017-11-24T04:12:56.199Z,100151
2017-11-24T04:15:25.041Z,100170
2017-11-24T04:17:53.178Z,100168
2017-11-24T04:20:23.678Z,100174
2017-11-24T04:22:51.852Z,100173
2017-11-24T04:25:19.970Z,100191
2017-11-24T04:27:48.960Z,100186
2017-11-24T04:30:17.089Z,100192
2017-11-24T04:32:45.229Z,100172
2017-11-24T04:35:13.309Z,100194
2017-11-24T04:37:42.164Z,100191
2017-11-24T04:40:10.328Z,100198
2017-11-24T04:42:38.509Z,100190
2017-11-24T04:45:06.592Z,100203
2017-11-24T04:47:34.701Z,100197
2017-11-24T04:50:02.849Z,100201
2017-11-24T04:52:31.342Z,100201
2017-11-24T04:54:59.442Z,100208
2017-11-24T04:57:27.785Z,100212
2017-11-24T04:59:56.018Z,100182
2017-11-24T05:02:24.856Z,100167
2017-11-24T05:04:52.934Z,100173
2017-11-24T05:07:21.061Z,100167
2017-11-24T05:09:49.932Z,100159
2017-11-24T05:12:18.009Z,100151
2017-11-24T05:14:46.824Z,100153
2017-11-24T05:17:15.959Z,100144
2017-11-24T05:19:44.890Z,100133
2017-11-24T05:22:12.985Z,100125
2017-11-24T05:24:41.286Z,100140
2017-11-24T05:27:09.385Z,100155
2017-11-24T05:29:37.457Z,100164
2017-11-24T05:32:05.554Z,100162
2017-11-24T05:34:34.386Z,100167
2017-11-24T05:37:02.481Z,100158
2017-11-24T05:39:30.549Z,100167
2017-11-24T05:41:58.624Z,100141
2017-11-24T05:44:27.160Z,100155
2017-11-24T05:46:55.273Z,100134
2017-11-24T05:49:23.350Z,100137
2017-11-24T05:51:51.424Z,100145
2017-11-24T05:54:19.537Z,100154
2017-11-24T05:56:47.604Z,100148
2017-11-24T05:59:15.725Z,100147
2017-11-24T06:01:43.816Z,100151
2017-11-24T06:04:11.873Z,100130
2017-11-24T06:06:40.056Z,100142
2017-11-24T06:09:08.533Z,100140
2017-11-24T06:11:36.648Z,100130
2017-11-24T06:14:04.859Z,100134
2017-11-24T06:16:33.265Z,100129
2017-11-24T06:19:01.366Z,100133
2017-11-24T06:21:29.977Z,100129
2017-11-24T06:23:58.389Z,100111
2017-11-24T06:26:26.883Z,100116
2017-11-24T06:28:54.950Z,100108
2017-11-24T06:31:23.015Z,100107
2017-11-24T06:33:51.089Z,100108
2017-11-24T06:36:20.006Z,100118
2017-11-24T06:38:48.357Z,100116
2017-11-24T06:41:16.499Z,100106
2017-11-24T06:43:44.598Z,100098
2017-11-24T06:46:12.707Z,100098
2017-11-24T06:48:40.771Z,100104
2017-11-24T06:51:08.844Z,100105
2017-11-24T06:53:38.421Z,100104
2017-11-24T06:56:06.527Z,100113
2017-11-24T06:58:34.690Z,100133
2017-11-24T07:01:03.201Z,100141
2017-11-24T07:03:31.348Z,100154
2017-11-24T07:05:59.412Z,100165
2017-11-24T07:08:27.526Z,100169
2017-11-24T07:10:56.409Z,100178
2017-11-24T07:13:24.511Z,100179
2017-11-24T07:15:52.632Z,100182
2017-11-24T07:18:20.760Z,100187
2017-11-24T07:20:49.563Z,100171
2017-11-24T07:23:17.677Z,100188
2017-11-24T07:25:47.261Z,100186
2017-11-24T07:28:15.349Z,100183
2017-11-24T07:30:43.435Z,100184
2017-11-24T07:33:11.861Z,100175
2017-11-24T07:35:39.937Z,100175
2017-11-24T07:38:08.017Z,100164
2017-11-24T07:40:36.125Z,100166
2017-11-24T07:43:04.374Z,100162
2017-11-24T07:45:32.557Z,100156
2017-11-24T07:48:00.622Z,100148
2017-11-24T07:50:28.711Z,100149
2017-11-24T07:52:57.312Z,100139
2017-11-24T07:55:26.120Z,100143
2017-11-24T07:57:54.214Z,100129
2017-11-24T08:00:23.056Z,100124
2017-11-24T08:02:51.133Z,100120
2017-11-24T08:05:19.198Z,100137
2017-11-24T08:07:48.749Z,100138
2017-11-24T08:10:16.853Z,100143
2017-11-24T08:12:44.921Z,100162
2017-11-24T08:15:12.993Z,100162
2017-11-24T08:17:41.044Z,100147
2017-11-24T08:20:09.425Z,100141
2017-11-24T08:22:37.550Z,100129
2017-11-24T08:25:05.661Z,100125
2017-11-24T08:27:33.801Z,100107
2017-11-24T08:30:02.712Z,100118
2017-11-24T08:32:31.554Z,100128
2017-11-24T08:34:59.636Z,100160
2017-11-24T08:37:27.709Z,100145
2017-11-24T08:39:55.772Z,100159
2017-11-24T08:42:23.856Z,100147
2017-11-24T08:44:51.953Z,100141
2017-11-24T08:47:25.529Z,100156
2017-11-24T08:49:53.968Z,100147
2017-11-24T08:52:22.108Z,100142
2017-11-24T08:54:50.909Z,100147
2017-11-24T08:57:19.001Z,100146
2017-11-24T08:59:47.082Z,100146
2017-11-24T09:02:16.590Z,100158
2017-11-24T09:04:44.678Z,100158
2017-11-24T09:07:12.725Z,100164
2017-11-24T09:09:40.850Z,100164
2017-11-24T09:12:09.752Z,100150
2017-11-24T09:14:37.844Z,100152
2017-11-24T09:17:06.684Z,100150
2017-11-24T09:19:34.759Z,100142
2017-11-24T09:22:03.020Z,100137
2017-11-24T09:24:31.091Z,100140
2017-11-24T09:26:59.660Z,100160
2017-11-24T09:29:27.752Z,100168
2017-11-24T09:31:55.852Z,100162
2017-11-24T09:34:23.978Z,100166
2017-11-24T09:36:52.088Z,100173
2017-11-24T09:39:20.346Z,100173
2017-11-24T09:41:48.501Z,100161
2017-11-24T09:44:16.630Z,100155
2017-11-24T09:46:45.303Z,100160
2017-11-24T09:49:13.369Z,100156
2017-11-24T09:51:41.485Z,100157
2017-11-24T09:54:09.595Z,100161
2017-11-24T09:56:37.723Z,100156
2017-11-24T09:59:06.561Z,100147
2017-11-24T10:01:34.690Z,100130
2017-11-24T10:04:03.660Z,100139
2017-11-24T10:06:32.021Z,100138
2017-11-24T10:09:00.166Z,100141
2017-11-24T10:11:28.260Z,100147
2017-11-24T10:13:56.327Z,100150
2017-11-24T10:16:24.384Z,100156
2017-11-24T10:18:52.529Z,100141
2017-11-24T10:21:25.528Z,100143
2017-11-24T10:23:53.620Z,100151
2017-11-24T10:26:21.724Z,100161
2017-11-24T10:28:50.179Z,100159
2017-11-24T10:31:18.252Z,100160
2017-11-24T10:33:47.057Z,100186
2017-11-24T10:36:15.169Z,100201
2017-11-24T10:38:43.254Z,100177
2017-11-24T10:41:11.729Z,100192
2017-11-24T10:43:39.797Z,100199
2017-11-24T10:46:08.301Z,100201
2017-11-24T10:48:36.408Z,100203
2017-11-24T10:51:04.700Z,100208
2017-11-24T10:53:32.781Z,100209
2017-11-24T10:56:00.865Z,100211
2017-11-24T10:58:29.704Z,100209
2017-11-24T11:00:57.761Z,100219
2017-11-24T11:03:25.832Z,100212
2017-11-24T11:05:53.903Z,100223
2017-11-24T11:08:22.473Z,100221
2017-11-24T11:10:50.604Z,100223
2017-11-24T11:13:18.657Z,100242
2017-11-24T11:15:46.718Z,100234
2017-11-24T11:18:14.769Z,100230
2017-11-24T11:20:43.280Z,100244
2017-11-24T11:23:12.067Z,100225
2017-11-24T11:25:40.650Z,100230
2017-11-24T11:28:10.157Z,100245
2017-11-24T11:30:38.844Z,100240
2017-11-24T11:33:08.348Z,100237
2017-11-24T11:35:36.745Z,100226
2017-11-24T11:38:05.925Z,100227
2017-11-24T11:40:34.400Z,100229
2017-11-24T11:43:02.487Z,100211
2017-11-24T11:45:30.978Z,100214
2017-11-24T11:47:59.093Z,100218
2017-11-24T11:50:27.987Z,100224
2017-11-24T11:52:56.098Z,100209
2017-11-24T11:55:24.217Z,100201
2017-11-24T11:57:52.760Z,100194
2017-11-24T12:00:20.868Z,100212
2017-11-24T12:02:48.977Z,100219
2017-11-24T12:05:17.049Z,100234
2017-11-24T12:07:45.128Z,100235
2017-11-24T12:10:13.282Z,100253
2017-11-24T12:12:42.104Z,100244
2017-11-24T12:15:10.282Z,100252
2017-11-24T12:17:38.412Z,100260
2017-11-24T12:20:07.237Z,100263
2017-11-24T12:22:35.617Z,100262
2017-11-24T12:25:04.541Z,100269
2017-11-24T12:27:32.693Z,100260
2017-11-24T12:30:00.805Z,100262
2017-11-24T12:32:28.878Z,100266
2017-11-24T12:34:57.021Z,100279
2017-11-24T12:37:25.324Z,100274
2017-11-24T12:39:53.726Z,100284
2017-11-24T12:42:22.206Z,100276
2017-11-24T12:44:50.696Z,100289
2017-11-24T12:47:20.135Z,100295
2017-11-24T12:49:48.694Z,100288
2017-11-24T12:52:17.302Z,100292
2017-11-24T12:54:46.287Z,100292
2017-11-24T12:57:14.416Z,100288
2017-11-24T12:59:42.523Z,100289
2017-11-24T13:02:11.358Z,100294
2017-11-24T13:04:39.456Z,100299
2017-11-24T13:07:07.595Z,100306
2017-11-24T13:09:35.719Z,100309
2017-11-24T13:12:04.621Z,100310
2017-11-24T13:14:32.770Z,100315
2017-11-24T13:17:00.859Z,100316
2017-11-24T13:19:28.941Z,100316
2017-11-24T13:21:57.304Z,100312
2017-11-24T13:24:26.140Z,100318
2017-11-24T13:26:54.248Z,100322
2017-11-24T13:29:22.446Z,100319
2017-11-24T13:31:50.515Z,100319
2017-11-24T13:34:18.598Z,100321
2017-11-24T13:36:46.718Z,100320
2017-11-24T13:39:14.831Z,100305
2017-11-24T13:41:42.947Z,100320
2017-11-24T13:44:11.539Z,100322
2017-11-24T13:46:39.650Z,100322
2017-11-24T13:49:08.495Z,100330
2017-11-24T13:51:36.577Z,100319
2017-11-24T13:54:04.683Z,100330
2017-11-24T13:56:32.766Z,100324
2017-11-24T13:59:00.845Z,100342
2017-11-24T14:01:28.921Z,100334
2017-11-24T14:03:57.022Z,100334
2017-11-24T14:06:25.397Z,100342
2017-11-24T14:08:53.783Z,100339
2017-11-24T14:11:21.913Z,100341
2017-11-24T14:13:50.749Z,100353
2017-11-24T14:16:18.833Z,100346
2017-11-24T14:18:46.955Z,100344
2017-11-24T14:21:15.167Z,100346
2017-11-24T14:23:43.394Z,100357
2017-11-24T14:26:11.469Z,100357
2017-11-24T14:28:39.546Z,100363
2017-11-24T14:31:08.709Z,100368
2017-11-24T14:33:36.837Z,100361
2017-11-24T14:36:05.264Z,100366
2017-11-24T14:38:33.389Z,100369
2017-11-24T14:41:01.611Z,100371
2017-11-24T14:43:29.711Z,100374
2017-11-24T14:45:58.532Z,100381
2017-11-24T14:48:28.658Z,100377
2017-11-24T14:50:56.725Z,100388
2017-11-24T14:53:25.570Z,100391
2017-11-24T14:55:53.654Z,100390
2017-11-24T14:58:21.823Z,100410
2017-11-24T15:00:50.021Z,100406
2017-11-24T15:03:18.129Z,100410
2017-11-24T15:05:46.277Z,100408
2017-11-24T15:08:14.446Z,100414
2017-11-24T15:10:42.882Z,100423
2017-11-24T15:13:12.478Z,100432
2017-11-24T15:15:40.601Z,100432
2017-11-24T15:18:08.698Z,100432
2017-11-24T15:20:36.769Z,100428
2017-11-24T15:23:04.936Z,100422
2017-11-24T15:25:33.017Z,100432
2017-11-24T15:28:01.201Z,100433
2017-11-24T15:30:29.613Z,100433
2017-11-24T15:32:57.692Z,100432
2017-11-24T15:35:25.772Z,100431
2017-11-24T15:37:54.581Z,100441
2017-11-24T15:40:22.724Z,100442
2017-11-24T15:42:51.551Z,100450
2017-11-24T15:45:19.661Z,100445
2017-11-24T15:47:47.741Z,100456
2017-11-24T15:50:15.813Z,100456
2017-11-24T15:52:43.947Z,100459
2017-11-24T15:55:12.021Z,100446
2017-11-24T15:57:40.100Z,100449
2017-11-24T16:00:08.221Z,100454
2017-11-24T16:02:37.030Z,100458
2017-11-24T16:05:05.943Z,100459
2017-11-24T16:07:34.011Z,100463
2017-11-24T16:10:02.099Z,100462
2017-11-24T16:12:30.153Z,100472
2017-11-24T16:14:58.720Z,100472
2017-11-24T16:17:26.793Z,100475
2017-11-24T16:19:54.889Z,100472
2017-11-24T16:22:22.965Z,100472
2017-11-24T16:24:51.042Z,100475
2017-11-24T16:27:19.133Z,100478
2017-11-24T16:29:47.226Z,100475
2017-11-24T16:32:17.173Z,100473
2017-11-24T16:34:46.008Z,100481
2017-11-24T16:37:14.124Z,100480
2017-11-24T16:39:43.005Z,100476
2017-11-24T16:42:11.238Z,100475
2017-11-24T16:44:39.352Z,100476
2017-11-24T16:47:07.539Z,100470
2017-11-24T16:49:35.746Z,100481
2017-11-24T16:52:03.857Z,100489
2017-11-24T16:54:31.953Z,100482
2017-11-24T16:57:01.586Z,100489
2017-11-24T16:59:30.896Z,100492
2017-11-24T17:01:59.036Z,100487
2017-11-24T17:04:27.136Z,100505
2017-11-24T17:06:55.253Z,100500
2017-11-24T17:09:23.350Z,100500
2017-11-24T17:11:51.473Z,100502
2017-11-24T17:14:19.646Z,100492
2017-11-24T17:16:47.745Z,100495
2017-11-24T17:19:15.841Z,100502
2017-11-24T17:21:43.934Z,100502
2017-11-24T17:24:13.083Z,100503
2017-11-24T17:26:41.254Z,100501
2017-11-24T17:29:09.395Z,100506
2017-11-24T17:31:37.509Z,100513
2017-11-24T17:34:06.372Z,100514
2017-11-24T17:36:34.488Z,100508
2017-11-24T17:39:03.813Z,100519
2017-11-24T17:41:32.682Z,100546
2017-11-24T17:44:00.781Z,100523
2017-11-24T17:46:28.873Z,100522
2017-11-24T17:48:57.001Z,100520
2017-11-24T17:51:25.141Z,100531
2017-11-24T17:53:53.246Z,100525
2017-11-24T17:56:22.861Z,100532
2017-11-24T17:58:50.975Z,100532
2017-11-24T18:01:34.093Z,100530
2017-11-24T18:04:02.240Z,100527
2017-11-24T18:06:31.296Z,100533
2017-11-24T18:08:59.853Z,100541
2017-11-24T18:11:27.966Z,100537
2017-11-24T18:13:56.062Z,100519
2017-11-24T18:16:24.174Z,100537
2017-11-24T18:18:52.312Z,100539
2017-11-24T18:21:20.478Z,100536
2017-11-24T18:23:48.612Z,100540
2017-11-24T18:26:16.729Z,100532
2017-11-24T18:28:44.901Z,100539
2017-11-24T18:31:13.153Z,100546
2017-11-24T18:33:41.281Z,100541
2017-11-24T18:36:09.516Z,100541
2017-11-24T18:38:37.691Z,100548
2017-11-24T18:41:05.897Z,100557
2017-11-24T18:43:34.054Z,100556
2017-11-24T18:46:02.595Z,100563
2017-11-24T18:48:30.733Z,100559
2017-11-24T18:50:58.836Z,100565
2017-11-24T18:53:26.969Z,100557
2017-11-24T18:55:56.268Z,100548
2017-11-24T18:58:25.106Z,100553
2017-11-24T19:00:53.386Z,100564
2017-11-24T19:03:21.477Z,100566
2017-11-24T19:05:49.735Z,100558
2017-11-24T19:08:17.845Z,100573
2017-11-24T19:10:45.954Z,100556
2017-11-24T19:13:14.129Z,100564
2017-11-24T19:15:42.674Z,100572
2017-11-24T19:18:10.968Z,100579
2017-11-24T19:20:39.861Z,100587
2017-11-24T19:23:08.745Z,100588
2017-11-24T19:25:37.598Z,100573
2017-11-24T19:28:05.716Z,100575
2017-11-24T19:30:34.553Z,100569
2017-11-24T19:33:03.365Z,100563
2017-11-24T19:35:31.546Z,100563
2017-11-24T19:38:00.138Z,100572
2017-11-24T19:40:28.234Z,100572
2017-11-24T19:42:57.097Z,100578
2017-11-24T19:45:25.217Z,100573
2017-11-24T19:47:53.651Z,100588
2017-11-24T19:50:22.226Z,100580
2017-11-24T19:52:49.902Z,100571
2017-11-24T19:55:18.298Z,100562
2017-11-24T19:57:46.437Z,100565
2017-11-24T20:00:14.909Z,100576
2017-11-24T20:02:43.032Z,100575
2017-11-24T20:05:11.855Z,100574
2017-11-24T20:07:39.972Z,100568
2017-11-24T20:10:08.150Z,100577
2017-11-24T20:12:36.510Z,100586
2017-11-24T20:15:04.710Z,100573
2017-11-24T20:17:33.648Z,100583
2017-11-24T20:20:01.910Z,100579
2017-11-24T20:22:30.396Z,100587
2017-11-24T20:24:58.520Z,100579
2017-11-24T20:27:26.749Z,100578
2017-11-24T20:29:54.857Z,100575
2017-11-24T20:32:23.296Z,100580
2017-11-24T20:34:51.696Z,100575
2017-11-24T20:37:19.872Z,100580
2017-11-24T20:39:47.973Z,100571
2017-11-24T20:42:16.538Z,100564
2017-11-24T20:44:44.617Z,100564
2017-11-24T20:47:12.796Z,100569
2017-11-24T20:49:40.885Z,100556
2017-11-24T20:52:09.032Z,100560
2017-11-24T20:54:37.178Z,100558
2017-11-24T20:57:05.269Z,100563
2017-11-24T20:59:33.669Z,100554
2017-11-24T21:02:01.762Z,100568
2017-11-24T21:04:30.654Z,100574
2017-11-24T21:06:59.546Z,100573
2017-11-24T21:09:28.464Z,100579
2017-11-24T21:11:56.581Z,100571
2017-11-24T21:14:24.691Z,100579
2017-11-24T21:16:52.782Z,100567
2017-11-24T21:19:20.848Z,100581
2017-11-24T21:21:48.945Z,100582
2017-11-24T21:24:17.067Z,100580
2017-11-24T21:26:45.260Z,100572
2017-11-24T21:29:13.873Z,100579
2017-11-24T21:31:41.993Z,100583
2017-11-24T21:34:10.393Z,100576
2017-11-24T21:36:39.215Z,100574
2017-11-24T21:39:07.505Z,100583
2017-11-24T21:41:35.641Z,100589
2017-11-24T21:44:05.218Z,100589
2017-11-24T21:46:33.567Z,100589
2017-11-24T21:49:02.046Z,100594
2017-11-24T21:51:30.106Z,100586
2017-11-24T21:53:58.171Z,100579
2017-11-24T21:56:26.445Z,100590
2017-11-24T21:58:54.530Z,100595
2017-11-24T22:01:22.638Z,100596
2017-11-24T22:03:51.098Z,100590
2017-11-24T22:06:19.205Z,100582
2017-11-24T22:08:47.286Z,100581
2017-11-24T22:11:16.105Z,100577
2017-11-24T22:13:44.205Z,100568
2017-11-24T22:16:12.292Z,100560
2017-11-24T22:18:40.379Z,100567
2017-11-24T22:21:08.469Z,100567
2017-11-24T22:23:37.298Z,100570
2017-11-24T22:26:05.381Z,100578
2017-11-24T22:28:33.489Z,100586
2017-11-24T22:31:02.345Z,100595
2017-11-24T22:33:30.465Z,100588
2017-11-24T22:35:59.299Z,100588
2017-11-24T22:38:27.405Z,100586
2017-11-24T22:40:55.526Z,100587
2017-11-24T22:43:23.657Z,100591
2017-11-24T22:45:51.796Z,100601
2017-11-24T22:48:20.483Z,100582
2017-11-24T22:50:48.565Z,100581
2017-11-24T22:53:16.622Z,100579
2017-11-24T22:55:44.744Z,100582
2017-11-24T22:58:12.898Z,100577
2017-11-24T23:00:42.480Z,100579
2017-11-24T23:03:10.757Z,100589
2017-11-24T23:05:38.880Z,100591
2017-11-24T23:08:07.697Z,100594
2017-11-24T23:10:35.860Z,100571
2017-11-24T23:13:04.402Z,100577
2017-11-24T23:15:33.975Z,100588
2017-11-24T23:18:02.261Z,100593
2017-11-24T23:20:30.539Z,100591
2017-11-24T23:22:58.596Z,100590
2017-11-24T23:25:26.673Z,100588
2017-11-24T23:27:54.762Z,100595
2017-11-24T23:30:22.825Z,100591
2017-11-24T23:32:50.869Z,100588
2017-11-24T23:35:18.966Z,100591
2017-11-24T23:37:47.473Z,100595
2017-11-24T23:40:15.565Z,100597
2017-11-24T23:42:43.638Z,100593
2017-11-24T23:45:11.705Z,100591
2017-11-24T23:47:40.554Z,100591
2017-11-24T23:50:08.645Z,100594
2017-11-24T23:52:36.921Z,100587
2017-11-24T23:55:05.002Z,100590
2017-11-24T23:57:33.080Z,100577
